createdAt,value
2022-08-23T00:00:34.148Z,22.30
2022-08-23T00:03:06.012Z,22.10
2022-08-23T00:05:40.285Z,21.90
2022-08-23T00:08:13.046Z,21.90
2022-08-23T00:10:44.968Z,21.90
2022-08-23T00:13:17.355Z,21.90
2022-08-23T00:15:49.230Z,21.90
2022-08-23T00:18:21.538Z,21.80
2022-08-23T00:20:53.436Z,21.80
2022-08-23T00:23:25.380Z,21.90
2022-08-23T00:25:57.263Z,21.90
2022-08-23T00:28:29.624Z,21.80
2022-08-23T00:31:01.525Z,21.90
2022-08-23T00:33:33.587Z,22.00
2022-08-23T00:36:05.478Z,21.90
2022-08-23T00:38:37.638Z,21.70
2022-08-23T00:41:09.685Z,21.60
2022-08-23T00:44:01.066Z,21.50
2022-08-23T00:47:23.884Z,21.60
2022-08-23T00:50:24.543Z,21.50
2022-08-23T00:53:07.591Z,21.50
2022-08-23T00:55:44.291Z,21.50
2022-08-23T00:58:19.671Z,21.50
2022-08-23T01:00:55.320Z,21.50
2022-08-23T01:03:30.454Z,21.40
2022-08-23T01:06:21.932Z,21.40
2022-08-23T01:09:04.730Z,21.50
2022-08-23T01:11:51.091Z,21.50
2022-08-23T01:14:38.723Z,21.60
2022-08-23T01:17:26.840Z,21.50
2022-08-23T01:20:04.710Z,21.40
2022-08-23T01:22:57.307Z,21.40
2022-08-23T01:25:32.627Z,21.40
2022-08-23T01:28:04.695Z,21.30
2022-08-23T01:30:37.031Z,21.10
2022-08-23T01:33:09.127Z,21.10
2022-08-23T01:35:46.683Z,21.10
2022-08-23T01:38:19.119Z,21.00
2022-08-23T01:40:52.124Z,20.90
2022-08-23T01:43:24.908Z,20.90
2022-08-23T01:45:58.692Z,20.90
2022-08-23T01:48:31.802Z,20.90
2022-08-23T01:51:04.084Z,20.80
2022-08-23T01:53:37.369Z,20.90
2022-08-23T01:56:09.792Z,20.90
2022-08-23T01:58:42.863Z,20.90
2022-08-23T02:01:19.022Z,20.90
2022-08-23T02:03:51.210Z,20.80
2022-08-23T02:06:36.160Z,20.70
2022-08-23T02:09:17.291Z,20.80
2022-08-23T02:11:49.964Z,20.70
2022-08-23T02:14:22.100Z,20.70
2022-08-23T02:17:04.384Z,20.60
2022-08-23T02:19:40.369Z,20.60
2022-08-23T02:22:13.720Z,20.70
2022-08-23T02:24:47.643Z,20.80
2022-08-23T02:27:19.804Z,20.80
2022-08-23T02:29:52.794Z,20.90
2022-08-23T02:32:26.931Z,20.90
2022-08-23T02:35:05.201Z,21.00
2022-08-23T02:37:39.266Z,20.90
2022-08-23T02:40:11.803Z,21.00
2022-08-23T02:42:43.804Z,20.90
2022-08-23T02:45:17.261Z,20.80
2022-08-23T02:47:52.706Z,20.80
2022-08-23T02:50:29.755Z,20.80
2022-08-23T02:53:01.749Z,20.70
2022-08-23T02:55:34.569Z,20.60
2022-08-23T02:58:07.024Z,20.60
2022-08-23T03:00:39.231Z,20.50
2022-08-23T03:03:12.428Z,20.60
2022-08-23T03:05:44.534Z,20.70
2022-08-23T03:08:17.188Z,20.70
2022-08-23T03:10:53.121Z,20.60
2022-08-23T03:13:25.051Z,20.50
2022-08-23T03:15:57.296Z,20.30
2022-08-23T03:18:29.969Z,20.20
2022-08-23T03:21:06.927Z,20.10
2022-08-23T03:23:39.851Z,20.20
2022-08-23T03:26:15.779Z,20.20
2022-08-23T03:28:48.127Z,20.20
2022-08-23T03:31:20.073Z,20.20
2022-08-23T03:34:18.037Z,20.20
2022-08-23T03:36:49.976Z,20.40
2022-08-23T03:39:22.169Z,20.50
2022-08-23T03:41:54.251Z,20.40
2022-08-23T03:44:26.242Z,20.30
2022-08-23T03:46:58.168Z,20.20
2022-08-23T03:49:31.785Z,20.00
2022-08-23T03:52:04.738Z,20.00
2022-08-23T03:54:38.912Z,20.00
2022-08-23T03:57:13.459Z,20.00
2022-08-23T03:59:45.409Z,20.00
2022-08-23T04:02:17.415Z,19.90
2022-08-23T04:04:49.337Z,19.80
2022-08-23T04:07:41.862Z,19.90
2022-08-23T04:10:15.586Z,19.90
2022-08-23T04:12:49.832Z,20.00
2022-08-23T04:15:24.214Z,20.00
2022-08-23T04:17:56.056Z,20.10
2022-08-23T04:20:29.664Z,20.10
2022-08-23T04:23:05.407Z,19.90
2022-08-23T04:25:45.347Z,19.70
2022-08-23T04:28:17.428Z,19.60
2022-08-23T04:30:51.149Z,19.60
2022-08-23T04:33:23.529Z,19.70
2022-08-23T04:35:55.498Z,19.70
2022-08-23T04:38:28.546Z,19.80
2022-08-23T04:41:23.688Z,19.90
2022-08-23T04:43:57.397Z,19.90
2022-08-23T04:46:31.119Z,19.90
2022-08-23T04:49:05.714Z,20.00
2022-08-23T04:51:38.638Z,19.90
2022-08-23T04:54:12.032Z,19.90
2022-08-23T04:57:26.357Z,19.90
2022-08-23T04:59:58.425Z,19.90
2022-08-23T05:02:30.453Z,19.70
2022-08-23T05:05:02.789Z,19.80
2022-08-23T05:07:42.461Z,19.90
2022-08-23T05:10:16.718Z,20.30
2022-08-23T05:12:55.809Z,20.70
2022-08-23T05:15:27.819Z,20.90
2022-08-23T05:18:08.588Z,21.20
2022-08-23T05:20:41.648Z,21.40
2022-08-23T05:23:13.591Z,21.60
2022-08-23T05:25:55.519Z,21.80
2022-08-23T05:28:35.046Z,22.10
2022-08-23T05:31:13.701Z,22.10
2022-08-23T05:33:50.436Z,22.30
2022-08-23T05:36:29.259Z,22.60
2022-08-23T05:39:01.529Z,22.80
2022-08-23T05:41:37.025Z,23.00
2022-08-23T05:44:13.101Z,23.20
2022-08-23T05:46:48.456Z,23.50
2022-08-23T05:49:39.191Z,23.70
2022-08-23T05:52:13.905Z,24.00
2022-08-23T05:54:48.207Z,24.30
2022-08-23T05:57:54.162Z,24.50
2022-08-23T06:00:31.612Z,24.80
2022-08-23T06:03:10.569Z,25.00
2022-08-23T06:05:42.710Z,25.10
2022-08-23T06:08:16.235Z,25.50
2022-08-23T06:10:48.052Z,25.70
2022-08-23T06:13:31.120Z,25.70
2022-08-23T06:16:14.813Z,25.90
2022-08-23T06:18:48.928Z,26.20
2022-08-23T06:21:40.633Z,26.50
2022-08-23T06:24:13.376Z,26.60
2022-08-23T06:26:54.970Z,26.90
2022-08-23T06:29:27.262Z,27.30
2022-08-23T06:32:19.179Z,27.40
2022-08-23T06:35:33.141Z,27.70
2022-08-23T06:38:08.558Z,27.90
2022-08-23T06:40:59.830Z,27.90
2022-08-23T06:43:32.614Z,28.00
2022-08-23T06:46:14.645Z,28.40
2022-08-23T06:48:49.771Z,28.80
2022-08-23T06:51:27.906Z,28.90
2022-08-23T06:54:05.489Z,29.40
2022-08-23T06:57:01.523Z,29.40
2022-08-23T06:59:38.834Z,29.90
2022-08-23T07:02:32.939Z,30.30
2022-08-23T07:05:43.051Z,30.40
2022-08-23T07:08:26.259Z,30.50
2022-08-23T07:10:58.613Z,30.80
2022-08-23T07:13:30.939Z,31.10
2022-08-23T07:16:03.959Z,31.30
2022-08-23T07:18:38.004Z,31.50
2022-08-23T07:21:09.957Z,31.50
2022-08-23T07:23:46.660Z,31.00
2022-08-23T07:26:19.499Z,31.20
2022-08-23T07:28:51.802Z,31.30
2022-08-23T07:31:31.149Z,30.90
2022-08-23T07:34:05.878Z,30.50
2022-08-23T07:36:42.191Z,30.70
2022-08-23T07:39:16.059Z,30.60
2022-08-23T07:41:48.192Z,30.40
2022-08-23T07:44:27.162Z,30.60
2022-08-23T07:46:59.862Z,31.10
2022-08-23T07:49:33.799Z,31.50
2022-08-23T07:52:08.051Z,30.20
2022-08-23T07:54:40.395Z,29.60
2022-08-23T07:57:31.245Z,29.70
2022-08-23T08:00:31.501Z,29.00
2022-08-23T08:03:26.366Z,29.40
2022-08-23T08:06:33.460Z,29.90
2022-08-23T08:09:06.060Z,30.40
2022-08-23T08:11:38.219Z,29.90
2022-08-23T08:14:11.249Z,29.50
2022-08-23T08:16:52.370Z,29.70
2022-08-23T08:19:43.911Z,29.20
2022-08-23T08:22:38.988Z,29.50
2022-08-23T08:25:19.944Z,29.40
2022-08-23T08:27:54.593Z,29.60
2022-08-23T08:30:27.094Z,29.20
2022-08-23T08:32:59.359Z,28.80
2022-08-23T08:35:31.810Z,29.40
2022-08-23T08:38:04.069Z,30.00
2022-08-23T08:40:40.375Z,29.80
2022-08-23T08:43:40.642Z,29.60
2022-08-23T08:46:28.401Z,30.20
2022-08-23T08:49:05.045Z,30.60
2022-08-23T08:51:42.609Z,30.70
2022-08-23T08:54:18.679Z,30.80
2022-08-23T08:56:58.203Z,30.60
2022-08-23T08:59:48.092Z,29.80
2022-08-23T09:02:32.671Z,29.00
2022-08-23T09:05:14.687Z,28.90
2022-08-23T09:08:04.906Z,29.30
2022-08-23T09:10:52.082Z,29.50
2022-08-23T09:13:36.128Z,29.50
2022-08-23T09:16:29.178Z,29.60
2022-08-23T09:19:02.722Z,30.30
2022-08-23T09:21:55.992Z,30.00
2022-08-23T09:24:29.943Z,30.40
2022-08-23T09:27:09.016Z,30.00
2022-08-23T09:29:57.146Z,29.60
2022-08-23T09:32:36.320Z,29.30
2022-08-23T09:35:21.103Z,29.20
2022-08-23T09:38:25.030Z,28.90
2022-08-23T09:41:19.345Z,29.10
2022-08-23T09:43:55.847Z,30.10
2022-08-23T09:46:33.436Z,30.60
2022-08-23T09:49:28.069Z,31.20
2022-08-23T09:52:22.256Z,31.00
2022-08-23T09:55:09.671Z,30.10
2022-08-23T09:57:48.257Z,30.60
2022-08-23T10:00:33.988Z,30.50
2022-08-23T10:03:39.739Z,30.20
2022-08-23T10:06:32.577Z,30.30
2022-08-23T10:09:09.548Z,31.00
2022-08-23T10:11:46.504Z,31.30
2022-08-23T10:14:20.973Z,30.70
2022-08-23T10:17:14.982Z,31.00
2022-08-23T10:19:57.178Z,31.10
2022-08-23T10:22:37.264Z,31.10
2022-08-23T10:25:33.451Z,31.40
2022-08-23T10:28:51.393Z,31.50
2022-08-23T10:31:29.168Z,30.70
2022-08-23T10:34:41.584Z,30.20
2022-08-23T10:37:23.488Z,30.30
2022-08-23T10:40:07.584Z,30.60
2022-08-23T10:42:47.216Z,31.00
2022-08-23T10:45:30.503Z,30.90
2022-08-23T10:48:28.446Z,30.70
2022-08-23T10:51:31.639Z,30.50
2022-08-23T10:54:16.174Z,30.00
2022-08-23T10:56:48.679Z,29.80
2022-08-23T10:59:25.189Z,29.80
2022-08-23T11:02:23.941Z,29.40
2022-08-23T11:05:19.960Z,29.50
2022-08-23T11:08:09.349Z,29.50
2022-08-23T11:10:56.147Z,29.60
2022-08-23T11:13:35.069Z,29.50
2022-08-23T11:16:29.204Z,29.40
2022-08-23T11:19:02.544Z,29.30
2022-08-23T11:21:45.906Z,29.40
2022-08-23T11:24:31.569Z,29.80
2022-08-23T11:27:07.370Z,29.60
2022-08-23T11:29:47.557Z,29.80
2022-08-23T11:32:42.610Z,30.00
2022-08-23T11:35:42.972Z,30.20
2022-08-23T11:38:47.478Z,30.30
2022-08-23T11:41:20.152Z,29.80
2022-08-23T11:44:04.866Z,29.70
2022-08-23T11:46:48.697Z,29.50
2022-08-23T11:49:28.606Z,29.30
2022-08-23T11:52:35.248Z,29.20
2022-08-23T11:55:35.204Z,29.50
2022-08-23T11:58:13.991Z,29.90
2022-08-23T12:01:12.504Z,29.50
2022-08-23T12:04:14.755Z,29.50
2022-08-23T12:06:51.505Z,29.40
2022-08-23T12:09:23.486Z,29.60
2022-08-23T12:11:55.334Z,30.10
2022-08-23T12:14:45.381Z,30.50
2022-08-23T12:17:19.312Z,30.10
2022-08-23T12:20:11.305Z,29.60
2022-08-23T12:23:16.046Z,29.60
2022-08-23T12:26:05.155Z,29.60
2022-08-23T12:28:46.304Z,30.00
2022-08-23T12:31:31.965Z,30.00
2022-08-23T12:34:27.206Z,30.00
2022-08-23T12:37:24.972Z,29.90
2022-08-23T12:40:02.281Z,29.80
2022-08-23T12:42:37.056Z,29.60
2022-08-23T12:45:20.789Z,29.90
2022-08-23T12:48:02.663Z,30.20
2022-08-23T12:50:44.502Z,30.40
2022-08-23T12:53:32.808Z,30.40
2022-08-23T12:56:11.191Z,30.40
2022-08-23T12:58:52.193Z,30.40
2022-08-23T13:01:33.547Z,29.90
2022-08-23T13:04:10.826Z,29.80
2022-08-23T13:06:56.582Z,29.90
2022-08-23T13:09:40.539Z,30.00
2022-08-23T13:12:13.393Z,30.00
2022-08-23T13:14:51.099Z,29.90
2022-08-23T13:17:25.893Z,29.90
2022-08-23T13:20:06.911Z,29.60
2022-08-23T13:22:54.724Z,29.80
2022-08-23T13:25:32.859Z,29.90
2022-08-23T13:28:28.970Z,30.00
2022-08-23T13:31:06.094Z,30.30
2022-08-23T13:33:41.097Z,30.50
2022-08-23T13:36:16.246Z,30.70
2022-08-23T13:38:48.793Z,31.10
2022-08-23T13:41:38.356Z,31.30
2022-08-23T13:44:12.777Z,30.80
2022-08-23T13:46:48.604Z,30.70
2022-08-23T13:49:24.677Z,30.80
2022-08-23T13:52:18.333Z,30.90
2022-08-23T13:54:53.104Z,31.10
2022-08-23T13:57:29.598Z,31.20
2022-08-23T14:00:02.396Z,31.20
2022-08-23T14:02:41.403Z,31.10
2022-08-23T14:05:13.510Z,30.60
2022-08-23T14:07:47.737Z,30.20
2022-08-23T14:10:23.248Z,30.40
2022-08-23T14:12:55.599Z,30.60
2022-08-23T14:18:19.962Z,30.70
2022-08-23T14:20:52.130Z,31.00
2022-08-23T14:23:24.045Z,31.20
2022-08-23T14:25:58.952Z,31.10
2022-08-23T14:28:31.281Z,31.10
2022-08-23T14:31:03.277Z,31.10
2022-08-23T14:33:38.820Z,31.10
2022-08-23T14:36:12.637Z,31.10
2022-08-23T14:38:44.698Z,31.20
2022-08-23T14:41:25.503Z,31.30
2022-08-23T14:43:57.396Z,31.20
2022-08-23T14:46:29.467Z,30.60
2022-08-23T14:49:01.412Z,30.30
2022-08-23T14:51:36.161Z,30.20
2022-08-23T14:54:22.213Z,30.20
2022-08-23T14:56:54.499Z,30.00
2022-08-23T14:59:26.613Z,29.90
2022-08-23T15:01:59.610Z,30.00
2022-08-23T15:04:34.773Z,30.10
2022-08-23T15:07:22.460Z,30.30
2022-08-23T15:09:54.873Z,30.10
2022-08-23T15:15:22.465Z,30.10
2022-08-23T15:17:57.220Z,30.40
2022-08-23T15:20:36.151Z,30.40
2022-08-23T15:23:09.202Z,30.20
2022-08-23T15:25:43.669Z,30.30
2022-08-23T15:28:18.857Z,30.30
2022-08-23T15:30:51.610Z,30.40
2022-08-23T15:33:26.946Z,30.50
2022-08-23T15:36:01.914Z,30.30
2022-08-23T15:38:37.120Z,30.00
2022-08-23T15:41:09.297Z,29.70
2022-08-23T15:43:42.947Z,29.60
2022-08-23T15:46:23.106Z,29.60
2022-08-23T15:48:59.494Z,29.50
2022-08-23T15:51:31.863Z,29.40
2022-08-23T15:54:04.258Z,29.40
2022-08-23T15:56:44.307Z,29.40
2022-08-23T15:59:18.882Z,29.40
2022-08-23T16:01:50.937Z,29.60
2022-08-23T16:04:23.043Z,29.80
2022-08-23T16:06:55.141Z,29.80
2022-08-23T16:09:30.692Z,29.90
2022-08-23T16:12:04.671Z,29.70
2022-08-23T16:14:38.561Z,29.60
2022-08-23T16:17:10.638Z,29.60
2022-08-23T16:19:44.221Z,29.50
2022-08-23T16:22:16.282Z,29.30
2022-08-23T16:24:48.338Z,29.30
2022-08-23T16:27:20.394Z,29.40
2022-08-23T16:29:52.462Z,29.40
2022-08-23T16:32:24.531Z,29.50
2022-08-23T16:34:56.450Z,29.60
2022-08-23T16:37:28.415Z,29.60
2022-08-23T16:40:00.378Z,29.60
2022-08-23T16:42:32.320Z,29.70
2022-08-23T16:45:05.112Z,29.80
2022-08-23T16:47:41.685Z,29.80
2022-08-23T16:50:14.790Z,29.90
2022-08-23T16:52:46.807Z,29.90
2022-08-23T16:55:19.009Z,29.80
2022-08-23T16:57:51.248Z,29.70
2022-08-23T17:00:23.245Z,29.60
2022-08-23T17:02:55.219Z,29.50
2022-08-23T17:05:29.362Z,29.40
2022-08-23T17:08:01.889Z,29.20
2022-08-23T17:10:33.918Z,29.10
2022-08-23T17:13:07.452Z,29.10
2022-08-23T17:15:39.987Z,29.10
2022-08-23T17:18:11.945Z,29.00
2022-08-23T17:20:44.042Z,29.00
2022-08-23T17:23:16.667Z,29.00
2022-08-23T17:25:50.265Z,29.00
2022-08-23T17:28:22.290Z,28.90
2022-08-23T17:30:54.629Z,28.80
2022-08-23T17:33:27.831Z,28.80
2022-08-23T17:35:59.776Z,28.60
2022-08-23T17:38:33.685Z,28.50
2022-08-23T17:41:05.703Z,28.40
2022-08-23T17:43:37.571Z,28.50
2022-08-23T17:46:09.572Z,28.50
2022-08-23T17:48:41.483Z,28.40
2022-08-23T17:51:13.412Z,28.40
2022-08-23T17:53:46.767Z,28.30
2022-08-23T17:56:18.776Z,28.20
2022-08-23T17:58:51.413Z,28.00
2022-08-23T18:01:23.543Z,28.00
2022-08-23T18:03:55.661Z,28.00
2022-08-23T18:06:28.117Z,27.80
2022-08-23T18:09:02.052Z,27.70
2022-08-23T18:11:35.135Z,27.60
2022-08-23T18:14:07.013Z,27.50
2022-08-23T18:16:41.985Z,27.40
2022-08-23T18:19:17.612Z,27.50
2022-08-23T18:21:49.732Z,27.50
2022-08-23T18:24:21.889Z,27.30
2022-08-23T18:27:12.483Z,27.20
2022-08-23T18:29:44.306Z,27.00
2022-08-23T18:32:19.496Z,26.90
2022-08-23T18:34:51.409Z,26.90
2022-08-23T18:37:23.356Z,26.80
2022-08-23T18:39:55.257Z,26.80
2022-08-23T18:42:27.387Z,26.80
2022-08-23T18:44:59.544Z,26.80
2022-08-23T18:47:31.593Z,26.70
2022-08-23T18:50:13.813Z,26.70
2022-08-23T18:52:45.940Z,26.60
2022-08-23T18:55:20.148Z,26.50
2022-08-23T18:57:52.064Z,26.30
2022-08-23T19:00:23.986Z,26.20
2022-08-23T19:02:55.932Z,26.20
2022-08-23T19:05:28.978Z,26.10
2022-08-23T19:08:14.586Z,25.90
2022-08-23T19:10:47.444Z,25.80
2022-08-23T19:13:19.795Z,25.70
2022-08-23T19:15:52.426Z,25.60
2022-08-23T19:18:24.586Z,25.60
2022-08-23T19:20:56.506Z,25.70
2022-08-23T19:23:28.515Z,25.70
2022-08-23T19:26:01.655Z,25.80
2022-08-23T19:28:33.707Z,25.80
2022-08-23T19:31:05.856Z,25.70
2022-08-23T19:33:38.074Z,25.70
2022-08-23T19:36:19.161Z,25.50
2022-08-23T19:39:01.583Z,25.30
2022-08-23T19:41:33.870Z,25.10
2022-08-23T19:44:07.862Z,25.10
2022-08-23T19:46:42.080Z,25.10
2022-08-23T19:49:16.129Z,25.00
2022-08-23T19:51:48.048Z,25.10
2022-08-23T19:54:20.442Z,25.00
2022-08-23T19:56:58.557Z,25.00
2022-08-23T19:59:38.602Z,25.00
2022-08-23T20:02:13.100Z,25.00
2022-08-23T20:04:45.143Z,25.00
2022-08-23T20:07:17.496Z,25.00
2022-08-23T20:09:49.555Z,25.00
2022-08-23T20:12:21.523Z,24.90
2022-08-23T20:14:53.897Z,24.90
2022-08-23T20:17:26.974Z,25.00
2022-08-23T20:19:58.981Z,24.90
2022-08-23T20:22:49.415Z,24.90
2022-08-23T20:25:21.408Z,24.90
2022-08-23T20:27:53.791Z,24.80
2022-08-23T20:30:26.013Z,24.80
2022-08-23T20:32:57.862Z,24.70
2022-08-23T20:35:29.899Z,24.70
2022-08-23T20:38:03.141Z,24.60
2022-08-23T20:40:35.446Z,24.60
2022-08-23T20:43:08.098Z,24.60
2022-08-23T20:45:40.185Z,24.50
2022-08-23T20:48:15.003Z,24.40
2022-08-23T20:50:46.990Z,24.40
2022-08-23T20:53:18.903Z,24.20
2022-08-23T20:55:50.818Z,24.10
2022-08-23T20:58:23.673Z,24.00
2022-08-23T21:00:55.809Z,23.90
2022-08-23T21:03:31.724Z,24.00
2022-08-23T21:06:35.796Z,23.90
2022-08-23T21:09:08.795Z,24.00
2022-08-23T21:11:40.901Z,23.90
2022-08-23T21:14:16.389Z,23.90
2022-08-23T21:16:49.239Z,23.80
2022-08-23T21:19:21.235Z,23.80
2022-08-23T21:21:53.125Z,23.70
2022-08-23T21:24:26.187Z,23.70
2022-08-23T21:26:58.171Z,23.60
2022-08-23T21:29:30.379Z,23.50
2022-08-23T21:32:02.440Z,23.50
2022-08-23T21:34:34.701Z,23.60
2022-08-23T21:37:06.882Z,23.50
2022-08-23T21:39:39.247Z,23.60
2022-08-23T21:42:15.351Z,23.60
2022-08-23T21:44:47.470Z,23.40
2022-08-23T21:47:20.748Z,23.30
2022-08-23T21:49:53.307Z,23.20
2022-08-23T21:52:25.246Z,23.20
2022-08-23T21:54:57.140Z,23.30
2022-08-23T21:57:29.155Z,23.20
2022-08-23T22:00:01.220Z,23.10
2022-08-23T22:02:33.190Z,23.10
2022-08-23T22:05:05.845Z,23.20
2022-08-23T22:07:38.654Z,23.10
2022-08-23T22:10:10.989Z,23.10
2022-08-23T22:12:43.294Z,23.00
2022-08-23T22:15:16.339Z,23.00
2022-08-23T22:17:48.215Z,23.00
2022-08-23T22:20:20.798Z,22.80
2022-08-23T22:22:52.704Z,22.80
2022-08-23T22:25:24.599Z,22.80
2022-08-23T22:27:56.473Z,22.80
2022-08-23T22:30:28.351Z,22.90
2022-08-23T22:33:00.237Z,22.80
2022-08-23T22:35:36.396Z,22.80
2022-08-23T22:38:14.166Z,22.80
2022-08-23T22:40:51.128Z,22.70
2022-08-23T22:43:23.416Z,22.70
2022-08-23T22:46:00.337Z,22.80
2022-08-23T22:48:35.149Z,22.80
2022-08-23T22:51:15.648Z,22.80
2022-08-23T22:53:51.316Z,22.90
2022-08-23T22:56:37.589Z,22.80
2022-08-23T22:59:10.579Z,22.80
2022-08-23T23:01:45.956Z,22.70
2022-08-23T23:04:22.526Z,22.80
2022-08-23T23:06:56.132Z,22.80
2022-08-23T23:09:28.636Z,22.80
2022-08-23T23:12:00.637Z,22.80
2022-08-23T23:14:32.517Z,22.80
2022-08-23T23:17:04.611Z,22.80
2022-08-23T23:19:55.064Z,22.70
2022-08-23T23:22:26.998Z,22.70
2022-08-23T23:25:02.190Z,22.60
2022-08-23T23:27:34.078Z,22.70
2022-08-23T23:30:06.488Z,22.70
2022-08-23T23:32:38.534Z,22.60
2022-08-23T23:35:14.089Z,22.60
2022-08-23T23:37:49.494Z,22.50
2022-08-23T23:40:22.647Z,22.40
2022-08-23T23:42:56.003Z,22.30
2022-08-23T23:45:28.665Z,22.30
2022-08-23T23:48:00.666Z,22.40
2022-08-23T23:50:35.221Z,22.40
2022-08-23T23:53:07.087Z,22.30
2022-08-23T23:55:38.967Z,22.30
2022-08-23T23:58:10.895Z,22.30
